createdAt,value
2018-03-20T00:03:00.688Z,5.10
2018-03-20T00:07:51.605Z,4.97
2018-03-20T00:12:42.568Z,5.63
2018-03-20T00:17:33.492Z,8.20
2018-03-20T00:22:24.402Z,5.73
2018-03-20T00:27:15.322Z,12.27
2018-03-20T00:32:06.232Z,7.90
2018-03-20T00:36:57.138Z,9.03
2018-03-20T00:41:48.048Z,10.40
2018-03-20T00:46:39.700Z,8.00
2018-03-20T00:51:31.356Z,6.23
2018-03-20T00:56:22.264Z,6.60
2018-03-20T01:01:13.166Z,7.83
2018-03-20T01:06:04.070Z,13.00
2018-03-20T01:10:54.969Z,7.50
2018-03-20T01:15:45.862Z,8.30
2018-03-20T01:20:36.762Z,8.00
2018-03-20T01:25:27.678Z,9.53
2018-03-20T01:30:18.616Z,6.53
2018-03-20T01:35:09.524Z,8.10
2018-03-20T01:40:00.437Z,7.77
2018-03-20T01:44:52.086Z,6.70
2018-03-20T01:49:43.728Z,7.43
2018-03-20T01:54:34.620Z,8.10
2018-03-20T01:59:25.508Z,8.00
2018-03-20T02:04:16.422Z,6.20
2018-03-20T02:09:07.331Z,7.63
2018-03-20T02:13:58.223Z,5.93
2018-03-20T02:18:49.855Z,5.80
2018-03-20T02:23:41.500Z,6.93
2018-03-20T02:28:33.133Z,6.47
2018-03-20T02:33:24.035Z,7.10
2018-03-20T02:38:14.988Z,6.70
2018-03-20T02:43:05.882Z,8.13
2018-03-20T02:47:56.775Z,5.30
2018-03-20T02:52:47.690Z,4.77
2018-03-20T02:57:39.325Z,5.27
2018-03-20T03:02:30.218Z,5.50
2018-03-20T03:07:21.103Z,5.83
2018-03-20T03:12:12.025Z,8.00
2018-03-20T03:17:03.657Z,5.60
2018-03-20T03:21:54.560Z,7.00
2018-03-20T03:26:45.472Z,5.10
2018-03-20T03:31:36.370Z,5.47
2018-03-20T03:36:28.011Z,7.33
2018-03-20T03:41:19.642Z,6.40
2018-03-20T03:46:10.526Z,8.27
2018-03-20T03:51:01.527Z,6.03
2018-03-20T03:55:53.678Z,8.20
2018-03-20T04:00:45.302Z,6.50
2018-03-20T04:05:36.198Z,8.73
2018-03-20T04:10:27.093Z,6.80
2018-03-20T04:15:18.740Z,6.53
2018-03-20T04:20:10.373Z,8.50
2018-03-20T04:25:01.267Z,8.77
2018-03-20T04:29:52.154Z,6.33
2018-03-20T04:34:43.779Z,7.37
2018-03-20T04:39:34.671Z,7.73
2018-03-20T04:44:25.567Z,7.63
2018-03-20T04:49:16.479Z,12.20
2018-03-20T04:54:08.134Z,6.07
2018-03-20T04:58:59.048Z,7.67
2018-03-20T05:03:49.952Z,5.33
2018-03-20T05:08:40.859Z,6.80
2018-03-20T05:13:31.749Z,7.50
2018-03-20T05:18:23.471Z,6.83
2018-03-20T05:28:36.497Z,11.48
2018-03-20T05:33:28.134Z,13.63
2018-03-20T05:38:19.026Z,8.53
2018-03-20T05:43:09.916Z,13.67
2018-03-20T05:53:25.283Z,10.15
2018-03-20T05:58:16.189Z,8.83
2018-03-20T06:03:07.105Z,7.37
2018-03-20T06:07:57.994Z,10.50
2018-03-20T06:12:48.886Z,14.70
2018-03-20T06:17:39.772Z,9.07
2018-03-20T06:22:30.658Z,8.50
2018-03-20T06:27:22.282Z,9.10
2018-03-20T06:32:13.200Z,9.63
2018-03-20T06:37:04.092Z,11.83
2018-03-20T06:41:54.984Z,11.87
2018-03-20T06:46:46.634Z,7.50
2018-03-20T06:51:38.266Z,8.33
2018-03-20T06:56:29.925Z,8.00
2018-03-20T07:01:21.580Z,10.70
2018-03-20T07:06:12.474Z,8.73
2018-03-20T07:11:03.371Z,6.83
2018-03-20T07:15:54.267Z,9.20
2018-03-20T07:20:45.903Z,10.63
2018-03-20T07:25:36.813Z,7.90
2018-03-20T07:30:27.716Z,10.70
2018-03-20T07:35:18.615Z,7.57
2018-03-20T07:40:09.519Z,10.13
2018-03-20T07:45:01.146Z,11.70
2018-03-20T07:49:52.025Z,7.60
2018-03-20T07:54:43.682Z,7.97
2018-03-20T07:59:35.349Z,7.50
2018-03-20T08:04:26.998Z,10.10
2018-03-20T08:09:18.693Z,14.67
2018-03-20T08:14:09.609Z,8.90
2018-03-20T08:19:00.510Z,8.43
2018-03-20T08:23:51.412Z,7.40
2018-03-20T08:28:43.039Z,8.83
2018-03-20T08:33:34.015Z,7.07
2018-03-20T08:38:24.948Z,11.30
2018-03-20T08:43:15.892Z,12.00
2018-03-20T08:48:06.789Z,9.00
2018-03-20T08:52:57.807Z,6.43
2018-03-20T08:57:49.427Z,6.97
2018-03-20T09:02:40.333Z,6.30
2018-03-20T09:07:31.235Z,7.83
2018-03-20T09:12:22.150Z,6.20
2018-03-20T09:17:13.057Z,9.50
2018-03-20T09:22:03.983Z,6.27
2018-03-20T09:26:54.943Z,6.43
2018-03-20T09:31:45.853Z,5.20
2018-03-20T09:36:36.742Z,4.53
2018-03-20T09:41:28.370Z,4.80
2018-03-20T09:46:19.250Z,4.87
2018-03-20T09:51:10.138Z,4.00
2018-03-20T09:56:01.026Z,5.60
2018-03-20T10:00:52.649Z,10.40
2018-03-20T10:05:43.530Z,9.07
2018-03-20T10:10:34.424Z,4.37
2018-03-20T10:15:25.322Z,5.30
2018-03-20T10:20:16.282Z,3.90
2018-03-20T10:25:07.874Z,6.43
2018-03-20T10:29:59.498Z,6.03
2018-03-20T10:34:50.387Z,5.00
2018-03-20T10:39:41.288Z,6.27
2018-03-20T10:44:32.171Z,6.40
2018-03-20T10:49:23.815Z,6.97
2018-03-20T10:54:14.962Z,6.93
2018-03-20T10:59:05.837Z,6.53
2018-03-20T11:03:57.462Z,7.20
2018-03-20T11:08:48.360Z,6.77
2018-03-20T11:13:39.364Z,6.60
2018-03-20T11:18:30.254Z,13.33
2018-03-20T11:23:21.152Z,7.30
2018-03-20T11:28:12.060Z,8.03
2018-03-20T11:33:02.942Z,11.67
2018-03-20T11:37:53.838Z,9.73
2018-03-20T11:42:45.472Z,8.80
2018-03-20T11:47:37.102Z,9.17
2018-03-20T11:52:27.993Z,11.47
2018-03-20T11:57:18.886Z,12.33
2018-03-20T12:02:09.768Z,11.90
2018-03-20T12:07:01.390Z,12.37
2018-03-20T12:11:52.274Z,12.10
2018-03-20T12:16:43.167Z,12.33
2018-03-20T12:21:34.054Z,11.23
2018-03-20T12:26:25.686Z,10.83
2018-03-20T12:31:17.329Z,10.87
2018-03-20T12:36:08.966Z,15.13
2018-03-20T12:41:00.601Z,9.10
2018-03-20T12:45:52.236Z,15.63
2018-03-20T12:50:43.885Z,11.60
2018-03-20T12:55:34.795Z,8.30
2018-03-20T13:00:26.415Z,12.27
2018-03-20T13:05:18.069Z,11.17
2018-03-20T13:10:09.117Z,18.50
2018-03-20T13:15:00.011Z,11.00
2018-03-20T13:19:50.907Z,9.90
2018-03-20T13:24:42.542Z,10.60
2018-03-20T13:29:34.170Z,10.33
2018-03-20T13:34:25.051Z,9.33
2018-03-20T13:39:15.952Z,8.10
2018-03-20T13:44:06.861Z,9.27
2018-03-20T13:48:58.494Z,14.10
2018-03-20T13:53:49.394Z,7.37
2018-03-20T13:58:40.286Z,6.67
2018-03-20T14:03:31.178Z,7.20
2018-03-20T14:08:22.076Z,10.00
2018-03-20T14:13:12.967Z,5.80
2018-03-20T14:18:04.636Z,6.90
2018-03-20T14:22:55.762Z,7.70
2018-03-20T14:27:46.666Z,7.57
2018-03-20T14:32:37.555Z,10.63
2018-03-20T14:37:35.517Z,8.50
2018-03-20T14:42:27.886Z,6.50
2018-03-20T14:47:19.542Z,6.70
2018-03-20T14:52:11.166Z,6.53
2018-03-20T14:57:02.059Z,5.83
2018-03-20T15:01:53.040Z,5.83
2018-03-20T15:06:43.907Z,5.63
2018-03-20T15:11:34.810Z,7.13
2018-03-20T15:16:26.446Z,8.00
2018-03-20T15:21:18.071Z,4.83
2018-03-20T15:26:09.029Z,4.63
2018-03-20T15:30:59.986Z,4.60
2018-03-20T15:35:50.940Z,7.20
2018-03-20T15:40:42.222Z,5.20
2018-03-20T15:45:33.153Z,4.70
2018-03-20T15:50:24.071Z,3.83
2018-03-20T15:55:15.178Z,4.53
2018-03-20T16:00:06.823Z,2.90
2018-03-20T16:04:57.714Z,6.97
2018-03-20T16:09:48.606Z,3.27
2018-03-20T16:14:39.524Z,2.30
2018-03-20T16:19:31.146Z,3.03
2018-03-20T16:24:22.034Z,2.37
2018-03-20T16:29:12.949Z,2.33
2018-03-20T16:34:03.907Z,2.40
2018-03-20T16:38:54.794Z,2.00
2018-03-20T16:43:45.706Z,2.33
2018-03-20T16:48:36.597Z,2.10
2018-03-20T16:53:27.694Z,1.80
2018-03-20T16:58:18.573Z,3.43
2018-03-20T17:03:10.203Z,1.90
2018-03-20T17:08:01.092Z,3.53
2018-03-20T17:12:51.987Z,2.30
2018-03-20T17:17:43.656Z,2.13
2018-03-20T17:22:34.555Z,1.83
2018-03-20T17:27:26.186Z,1.93
2018-03-20T17:32:17.855Z,2.33
2018-03-20T17:37:09.491Z,1.67
2018-03-20T17:42:01.145Z,2.20
2018-03-20T17:46:52.774Z,1.70
2018-03-20T17:51:44.403Z,1.90
2018-03-20T17:56:35.295Z,1.60
2018-03-20T18:01:26.224Z,1.40
2018-03-20T18:06:17.133Z,1.30
2018-03-20T18:11:08.126Z,1.17
2018-03-20T18:15:59.833Z,1.40
2018-03-20T18:20:50.716Z,1.47
2018-03-20T18:25:42.394Z,1.57
2018-03-20T18:30:33.354Z,1.40
2018-03-20T18:35:24.257Z,1.40
2018-03-20T18:40:15.146Z,1.53
2018-03-20T18:45:06.782Z,2.10
2018-03-20T18:49:57.671Z,2.10
2018-03-20T18:54:48.582Z,3.87
2018-03-20T18:59:40.232Z,1.57
2018-03-20T19:04:31.846Z,1.87
2018-03-20T19:09:22.831Z,2.00
2018-03-20T19:14:13.809Z,1.70
2018-03-20T19:19:04.698Z,4.17
2018-03-20T19:23:55.592Z,1.73
2018-03-20T19:28:46.546Z,1.67
2018-03-20T19:33:37.461Z,2.50
2018-03-20T19:38:28.346Z,3.23
2018-03-20T19:43:19.248Z,2.07
2018-03-20T19:48:10.183Z,3.10
2018-03-20T19:53:01.094Z,1.77
2018-03-20T19:57:52.044Z,2.10
2018-03-20T20:02:43.031Z,1.87
2018-03-20T20:07:33.926Z,1.80
2018-03-20T20:12:25.833Z,1.70
2018-03-20T20:17:16.846Z,1.63
2018-03-20T20:22:07.883Z,2.27
2018-03-20T20:26:58.766Z,1.83
2018-03-20T20:31:49.658Z,3.53
2018-03-20T20:36:40.582Z,1.93
2018-03-20T20:41:31.574Z,1.63
2018-03-20T20:46:22.495Z,2.00
2018-03-20T20:51:13.435Z,2.03
2018-03-20T20:56:04.343Z,2.20
2018-03-20T21:00:55.365Z,1.90
2018-03-20T21:05:46.338Z,2.70
2018-03-20T21:10:37.239Z,2.13
2018-03-20T21:15:28.130Z,2.50
2018-03-20T21:20:19.766Z,2.20
2018-03-20T21:25:11.405Z,3.17
2018-03-20T21:30:02.298Z,3.57
2018-03-20T21:34:53.230Z,2.07
2018-03-20T21:39:44.128Z,2.30
2018-03-20T21:44:42.345Z,3.60
2018-03-20T21:49:38.788Z,6.57
2018-03-20T21:54:30.502Z,2.83
2018-03-20T21:59:22.247Z,2.07
2018-03-20T22:04:15.189Z,2.40
2018-03-20T22:09:06.203Z,2.30
2018-03-20T22:13:57.136Z,2.00
2018-03-20T22:19:01.311Z,2.83
2018-03-20T22:23:54.831Z,2.23
2018-03-20T22:28:49.126Z,3.23
2018-03-20T22:34:01.933Z,2.80
2018-03-20T22:38:53.638Z,2.67
2018-03-20T22:43:45.266Z,3.00
2018-03-20T22:48:37.061Z,2.87
2018-03-20T22:53:27.954Z,1.77
2018-03-20T22:58:18.850Z,4.40
2018-03-20T23:03:09.765Z,2.40
2018-03-20T23:08:00.673Z,2.27
2018-03-20T23:12:52.313Z,2.27
2018-03-20T23:17:43.946Z,1.70
2018-03-20T23:22:34.834Z,1.90
2018-03-20T23:27:25.779Z,2.60
2018-03-20T23:32:16.674Z,2.13
2018-03-20T23:37:07.584Z,4.43
2018-03-20T23:41:59.225Z,2.00
2018-03-20T23:46:50.914Z,2.13
2018-03-20T23:51:41.875Z,3.70
2018-03-20T23:56:32.774Z,1.83
